createdAt,value
2022-09-05T00:02:09.732Z,26.40
2022-09-05T00:04:53.842Z,26.40
2022-09-05T00:07:58.958Z,26.50
2022-09-05T00:11:41.447Z,26.50
2022-09-05T00:14:02.917Z,26.50
2022-09-05T00:17:02.398Z,26.50
2022-09-05T00:24:19.105Z,26.50
2022-09-05T00:24:31.149Z,26.60
2022-09-05T00:27:06.282Z,26.60
2022-09-05T00:31:51.628Z,26.70
2022-09-05T00:35:52.456Z,26.70
2022-09-05T00:38:26.247Z,26.80
2022-09-05T00:41:11.232Z,26.80
2022-09-05T00:43:47.814Z,26.80
2022-09-05T00:46:42.700Z,26.90
2022-09-05T00:49:29.405Z,26.90
2022-09-05T00:52:33.481Z,27.00
2022-09-05T00:55:23.879Z,27.00
2022-09-05T00:58:14.413Z,27.10
2022-09-05T01:01:02.844Z,27.10
2022-09-05T01:04:46.709Z,27.20
2022-09-05T01:07:46.846Z,27.20
2022-09-05T01:10:23.649Z,27.30
2022-09-05T01:12:58.683Z,27.30
2022-09-05T01:15:42.614Z,27.40
2022-09-05T01:18:33.677Z,27.40
2022-09-05T01:21:26.855Z,27.50
2022-09-05T01:24:27.784Z,27.50
2022-09-05T01:27:19.072Z,27.50
2022-09-05T01:30:05.749Z,27.60
2022-09-05T01:33:15.908Z,27.60
2022-09-05T01:36:01.926Z,27.70
2022-09-05T01:40:11.998Z,27.70
2022-09-05T01:42:22.547Z,27.80
2022-09-05T01:44:58.491Z,27.80
2022-09-05T01:47:51.987Z,27.80
2022-09-05T01:50:59.365Z,27.80
2022-09-05T01:53:58.748Z,27.90
2022-09-05T01:56:39.055Z,27.90
2022-09-05T01:59:29.498Z,28.00
2022-09-05T02:02:08.080Z,27.90
2022-09-05T02:05:20.645Z,27.90
2022-09-05T02:08:35.202Z,27.90
2022-09-05T02:11:07.653Z,27.90
2022-09-05T02:13:37.362Z,28.00
2022-09-05T02:16:39.412Z,28.00
2022-09-05T02:19:13.545Z,28.00
2022-09-05T02:22:12.884Z,28.10
2022-09-05T02:24:49.682Z,28.10
2022-09-05T02:28:07.703Z,28.10
2022-09-05T02:30:55.763Z,28.10
2022-09-05T02:33:47.356Z,28.10
2022-09-05T02:36:24.055Z,28.10
2022-09-05T02:45:07.011Z,28.10
2022-09-05T02:45:10.844Z,28.10
2022-09-05T02:45:28.180Z,28.20
2022-09-05T02:48:28.307Z,28.20
2022-09-05T02:54:17.846Z,28.20
2022-09-05T02:58:06.156Z,28.30
2022-09-05T02:58:06.554Z,28.30
2022-09-05T03:00:30.820Z,28.40
2022-09-05T03:03:02.866Z,28.50
2022-09-05T03:05:53.885Z,28.60
2022-09-05T03:08:57.949Z,28.60
2022-09-05T03:19:50.838Z,28.90
2022-09-05T03:30:12.203Z,29.00
2022-09-05T05:50:05.468Z,31.70
2022-09-05T08:17:02.428Z,32.60
2022-09-05T08:20:08.442Z,32.50
2022-09-05T08:23:04.328Z,32.40
2022-09-05T08:25:57.403Z,32.20
2022-09-05T08:28:40.342Z,31.80
2022-09-05T08:31:17.874Z,31.10
2022-09-05T08:33:49.430Z,30.70
2022-09-05T08:36:24.560Z,30.30
2022-09-05T08:38:54.355Z,30.00
2022-09-05T08:41:50.175Z,29.80
2022-09-05T08:46:40.601Z,29.60
2022-09-05T08:48:00.860Z,29.40
2022-09-05T08:50:35.837Z,29.30
2022-09-05T08:53:45.198Z,29.10
2022-09-05T08:56:40.814Z,28.90
2022-09-05T08:59:32.013Z,28.70
2022-09-05T09:02:46.970Z,28.50
2022-09-05T09:05:23.420Z,28.40
2022-09-05T09:08:02.193Z,28.30
2022-09-05T09:10:51.353Z,28.20
2022-09-05T09:13:54.332Z,28.00
2022-09-05T09:16:41.131Z,27.90
2022-09-05T09:19:18.042Z,27.90
2022-09-05T09:22:20.517Z,27.90
2022-09-05T09:25:15.542Z,27.80
2022-09-05T09:28:49.405Z,27.80
